Capitol Logistics 117


PHNL
Daniel K Inouye International Airport
Honolulu, Hawaii, US
KLAX
Los Angeles International Airport
Los Angeles, California, US

Activity Log

Date Flight Route Aircraft Duration
04/04/2020 CPX117 MKK4 CLUTS R465 CIVIT R585 AUDIA SNAXX RYDRR2 B744 4h 53m
06/30/2019 CPX227 MKK4 CLUTS R465 CIVIT R585 AUDIA SNAXX RYDRR2 B763 5h 24m
01/19/2019 CPX227 MKK4 CLUTS R465 CIVIT R585 AUDIA SNAXX RYDRR2 B763 4h 50m
01/08/2019 CPX117 MKK4 EBBER R577 ELKEY RYDRR2 MD11 4h 41m
12/04/2018 CPX127 EBBER R577 ELKEY B763 5h 17m

Route Details

Aircraft Information
Primary: Boeing 747-400BCF
Backup: Boeing 777-200LRF
Route Data
Distance: 2267nm
Sched. Duration: 5h 40m
Avg. Duration: 4h 77m (-63m)
Times Flown: 5
Recm'd Route: MKK4 CLUTS R465 CIVIT R585 AUDIA SNAXX RYDRR2
Planned Altitude: 35,000ft
Origin Wx: PHNL 061053Z 18003KT 10SM FEW020 FEW045 FEW250 24/20 A2994 RMK AO2 SLP137 T02390200
Dest. Wx: KLAX 061053Z 19010KT 2 1/2SM +RA FEW008 SCT020 OVC026 14/11 A2983 RMK AO2 SLP101 VIS S 2 VIS SW 1 1/2 P0008 T01390106
Notes:

Financial History
Total Freight: 679,967lbs
Average Load: 135,993lbs/flt
Fuel Used: 352,303lbs
Avg. Fuel Used: 70,461lbs/flt
Fuel Expense: $252,973
Avg. Fuel Expense: $50,595
Avg. Fuel Cost: $0.72/lbs
Total Gross Income: $874,067
Pilot Pay: $855
Total Expenses: $94,659
Total Revenue: $521,896
Average Revenue: $174,813.32